Time;durP1;ratioP1;P1;durP2;ratioP2;P2;SDS_P1;SDS_P2;PMS_P1;PMS_P2;Temp;Humidity;BMP_temperature;BMP_pressure;BME280_temperature;BME280_humidity;BME280_pressure;Samples;Min_cycle;Max_cycle;Signal;HPM_P1;HPM_P2
2021/08/20 00:01:43;;;;;;;5.82;3.50;;;;;;;;;;6268598;28;20052;-73
2021/08/20 00:04:45;;;;;;;5.70;3.53;;;;;;;;;;6280556;28;20392;-73
2021/08/20 00:07:47;;;;;;;7.13;3.58;;;;;;;;;;6265801;28;20474;-74
2021/08/20 00:10:49;;;;;;;6.35;3.42;;;;;;;;;;6271833;28;20139;-73
2021/08/20 00:13:51;;;;;;;4.32;3.15;;;;;;;;;;6280378;28;20175;-74
2021/08/20 00:16:52;;;;;;;5.63;3.30;;;;;;;;;;6267774;28;20041;-73
2021/08/20 00:19:55;;;;;;;6.32;3.25;;;;;;;;;;6278332;28;20465;-73
2021/08/20 00:22:57;;;;;;;5.80;3.28;;;;;;;;;;6266431;28;20128;-73
2021/08/20 00:25:58;;;;;;;7.13;3.17;;;;;;;;;;6270106;28;20053;-73
2021/08/20 00:29:00;;;;;;;5.65;3.35;;;;;;;;;;6279723;28;20081;-73
2021/08/20 00:32:03;;;;;;;4.53;2.70;;;;;;;;;;6264418;28;20412;-73
2021/08/20 00:35:07;;;;;;;7.40;3.53;;;;;;;;;;6276119;28;22197;-73
2021/08/20 00:38:09;;;;;;;7.05;3.50;;;;;;;;;;6271685;28;20040;-73
2021/08/20 00:41:12;;;;;;;5.53;3.40;;;;;;;;;;6270689;28;20048;-73
2021/08/20 00:44:13;;;;;;;4.65;3.00;;;;;;;;;;6280274;28;20079;-75
2021/08/20 00:47:15;;;;;;;8.70;3.53;;;;;;;;;;6265721;28;20048;-75
2021/08/20 00:50:18;;;;;;;8.82;3.10;;;;;;;;;;6270585;28;20094;-76
2021/08/20 00:53:19;;;;;;;8.38;3.03;;;;;;;;;;6275504;28;20079;-73
2021/08/20 00:56:21;;;;;;;4.30;3.00;;;;;;;;;;6266505;28;20689;-73
2021/08/20 00:59:24;;;;;;;7.22;3.28;;;;;;;;;;6276006;28;20049;-75
2021/08/20 01:02:26;;;;;;;5.60;2.92;;;;;;;;;;6266116;28;20166;-73
2021/08/20 01:05:29;;;;;;;4.78;3.17;;;;;;;;;;6264996;28;20057;-73
2021/08/20 01:08:32;;;;;;;8.23;3.20;;;;;;;;;;6279705;28;20041;-73
2021/08/20 01:11:35;;;;;;;5.88;3.05;;;;;;;;;;6269944;28;20122;-73
2021/08/20 01:14:37;;;;;;;3.90;2.80;;;;;;;;;;6284345;28;20120;-73
2021/08/20 01:17:38;;;;;;;9.82;2.70;;;;;;;;;;6271024;28;20182;-73
2021/08/20 01:20:41;;;;;;;5.80;2.90;;;;;;;;;;6279621;28;20048;-72
2021/08/20 01:23:44;;;;;;;5.35;3.13;;;;;;;;;;6286083;28;20396;-73
2021/08/20 01:26:47;;;;;;;4.03;2.70;;;;;;;;;;6272313;28;20044;-74
2021/08/20 01:29:49;;;;;;;5.55;2.95;;;;;;;;;;6274461;28;20459;-72
2021/08/20 01:32:50;;;;;;;4.70;2.95;;;;;;;;;;6261109;28;20105;-73
2021/08/20 01:35:52;;;;;;;4.78;2.85;;;;;;;;;;6267976;28;20696;-73
2021/08/20 01:38:55;;;;;;;11.27;3.20;;;;;;;;;;6278600;28;20186;-73
2021/08/20 01:41:58;;;;;;;5.75;3.08;;;;;;;;;;6271579;28;20098;-73
2021/08/20 01:44:59;;;;;;;5.15;3.08;;;;;;;;;;6279131;28;20143;-73
2021/08/20 01:48:01;;;;;;;3.80;2.60;;;;;;;;;;6265755;28;20503;-73
2021/08/20 01:51:02;;;;;;;3.83;2.90;;;;;;;;;;6266533;28;20088;-73
2021/08/20 01:54:04;;;;;;;3.80;2.90;;;;;;;;;;6283317;28;20029;-72
2021/08/20 01:57:07;;;;;;;4.63;2.60;;;;;;;;;;6267140;28;20135;-72
2021/08/20 02:00:10;;;;;;;5.13;2.78;;;;;;;;;;6279367;28;20037;-75
2021/08/20 02:03:11;;;;;;;8.00;3.00;;;;;;;;;;6276115;28;20045;-73
2021/08/20 02:06:13;;;;;;;5.18;2.85;;;;;;;;;;6271387;28;20051;-73
2021/08/20 02:09:15;;;;;;;6.03;2.80;;;;;;;;;;6279163;28;20051;-73
2021/08/20 02:12:18;;;;;;;3.65;2.35;;;;;;;;;;6269872;28;20053;-73
2021/08/20 02:15:20;;;;;;;5.45;2.65;;;;;;;;;;6272932;28;20163;-75
2021/08/20 02:18:21;;;;;;;6.20;2.60;;;;;;;;;;6279730;28;20525;-75
2021/08/20 02:21:23;;;;;;;5.82;2.83;;;;;;;;;;6278409;28;20094;-73
2021/08/20 02:24:24;;;;;;;5.63;2.40;;;;;;;;;;6291045;28;20058;-73
2021/08/20 02:27:27;;;;;;;6.15;2.80;;;;;;;;;;6288613;28;20054;-74
2021/08/20 02:30:29;;;;;;;3.50;2.38;;;;;;;;;;6310225;28;20159;-73
2021/08/20 02:33:33;;;;;;;5.15;2.67;;;;;;;;;;6290017;28;20056;-73
2021/08/20 02:36:34;;;;;;;5.78;3.00;;;;;;;;;;6292004;28;20080;-75
2021/08/20 02:39:36;;;;;;;3.70;2.70;;;;;;;;;;6289302;28;20131;-73
2021/08/20 02:42:39;;;;;;;5.20;2.47;;;;;;;;;;6290420;28;20056;-73
2021/08/20 02:45:41;;;;;;;6.45;2.40;;;;;;;;;;6291786;28;20126;-72
2021/08/20 02:48:42;;;;;;;3.75;2.30;;;;;;;;;;6297612;28;20185;-74
2021/08/20 02:51:44;;;;;;;7.03;2.50;;;;;;;;;;6270256;28;20084;-73
2021/08/20 02:54:45;;;;;;;5.20;2.70;;;;;;;;;;6295829;28;20051;-72
2021/08/20 02:57:48;;;;;;;5.72;2.92;;;;;;;;;;6302534;28;20048;-72
2021/08/20 03:00:50;;;;;;;4.03;2.72;;;;;;;;;;6291010;28;20177;-72
2021/08/20 03:03:52;;;;;;;3.92;2.53;;;;;;;;;;6279385;28;20053;-73
2021/08/20 03:06:54;;;;;;;4.78;2.80;;;;;;;;;;6269303;28;21377;-73
2021/08/20 03:09:55;;;;;;;4.15;2.65;;;;;;;;;;6281150;28;20477;-73
2021/08/20 03:12:58;;;;;;;4.28;2.65;;;;;;;;;;6269082;28;20174;-73
2021/08/20 03:16:00;;;;;;;7.10;2.88;;;;;;;;;;6273128;28;20178;-73
2021/08/20 03:19:01;;;;;;;5.78;2.42;;;;;;;;;;6278389;28;20510;-75
2021/08/20 03:22:03;;;;;;;4.75;2.33;;;;;;;;;;6271261;28;20041;-73
2021/08/20 03:25:05;;;;;;;2.78;2.15;;;;;;;;;;6278420;28;20557;-76
2021/08/20 03:28:10;;;;;;;5.93;2.50;;;;;;;;;;6274255;28;20049;-73
2021/08/20 03:31:11;;;;;;;3.72;2.75;;;;;;;;;;6262286;28;20135;-72
2021/08/20 03:34:13;;;;;;;4.03;2.67;;;;;;;;;;6260423;28;20116;-72
2021/08/20 03:37:14;;;;;;;4.80;2.75;;;;;;;;;;6267148;28;20056;-73
2021/08/20 03:40:16;;;;;;;4.75;2.72;;;;;;;;;;6276956;28;20140;-75
2021/08/20 03:43:19;;;;;;;5.65;2.72;;;;;;;;;;6264779;28;20049;-72
2021/08/20 03:46:20;;;;;;;7.82;2.90;;;;;;;;;;6251864;28;20492;-76
2021/08/20 03:49:22;;;;;;;8.27;3.10;;;;;;;;;;6276865;28;20044;-74
2021/08/20 03:52:23;;;;;;;4.03;2.70;;;;;;;;;;6274127;28;20421;-77
2021/08/20 03:55:25;;;;;;;3.72;2.42;;;;;;;;;;6274970;28;20051;-76
2021/08/20 03:58:28;;;;;;;7.18;2.95;;;;;;;;;;6274848;28;20136;-73
2021/08/20 04:01:30;;;;;;;3.75;2.25;;;;;;;;;;6269283;28;20044;-75
2021/08/20 04:04:32;;;;;;;5.38;2.53;;;;;;;;;;6277129;28;20623;-73
2021/08/20 04:07:33;;;;;;;4.85;2.58;;;;;;;;;;6269438;28;20450;-73
2021/08/20 04:10:35;;;;;;;3.80;2.25;;;;;;;;;;6270164;28;20131;-76
2021/08/20 04:13:38;;;;;;;4.53;2.75;;;;;;;;;;6283812;28;20040;-72
2021/08/20 04:16:40;;;;;;;5.78;2.58;;;;;;;;;;6270227;28;20190;-73
2021/08/20 04:19:41;;;;;;;5.85;2.55;;;;;;;;;;6269339;28;20060;-73
2021/08/20 04:22:43;;;;;;;4.20;2.47;;;;;;;;;;6266485;28;20140;-73
2021/08/20 04:25:45;;;;;;;7.65;2.65;;;;;;;;;;6271024;28;20131;-73
2021/08/20 04:28:49;;;;;;;4.60;2.47;;;;;;;;;;6280198;28;20105;-73
2021/08/20 04:31:51;;;;;;;3.85;2.30;;;;;;;;;;6262899;28;20136;-73
2021/08/20 04:34:52;;;;;;;3.13;2.45;;;;;;;;;;6276342;28;20397;-73
2021/08/20 04:37:54;;;;;;;5.80;2.63;;;;;;;;;;6270616;28;20040;-73
2021/08/20 04:40:55;;;;;;;3.08;2.40;;;;;;;;;;6269296;28;20045;-73
2021/08/20 04:43:58;;;;;;;4.72;2.83;;;;;;;;;;6281208;28;20114;-73
2021/08/20 04:47:00;;;;;;;4.20;2.65;;;;;;;;;;6260608;28;20128;-73
2021/08/20 04:50:02;;;;;;;5.30;2.72;;;;;;;;;;6275620;28;20132;-73
2021/08/20 04:53:04;;;;;;;5.37;2.73;;;;;;;;;;6267488;28;20097;-73
2021/08/20 04:56:06;;;;;;;3.95;2.35;;;;;;;;;;6268244;28;20537;-75
2021/08/20 04:59:09;;;;;;;3.17;2.40;;;;;;;;;;6278181;28;20412;-73
2021/08/20 05:02:11;;;;;;;7.72;3.08;;;;;;;;;;6264600;28;20549;-73
2021/08/20 05:05:13;;;;;;;4.68;2.67;;;;;;;;;;6268303;28;20140;-76
2021/08/20 05:08:14;;;;;;;12.40;2.70;;;;;;;;;;6271194;28;22651;-73
2021/08/20 05:11:16;;;;;;;8.73;3.38;;;;;;;;;;6267944;28;20056;-74
2021/08/20 05:14:19;;;;;;;4.70;3.00;;;;;;;;;;6293935;28;20123;-72
2021/08/20 05:17:20;;;;;;;6.35;3.13;;;;;;;;;;6274976;28;20117;-73
2021/08/20 05:20:22;;;;;;;7.57;2.85;;;;;;;;;;6281879;28;20044;-74
2021/08/20 05:23:23;;;;;;;5.57;2.50;;;;;;;;;;6278384;28;20062;-73
2021/08/20 05:26:25;;;;;;;5.53;2.67;;;;;;;;;;6268269;28;20052;-73
2021/08/20 05:29:28;;;;;;;3.83;2.70;;;;;;;;;;6274743;28;20051;-72
2021/08/20 05:32:30;;;;;;;7.32;2.70;;;;;;;;;;6261970;28;20186;-73
2021/08/20 05:35:34;;;;;;;3.75;2.78;;;;;;;;;;6277036;28;20124;-74
2021/08/20 05:38:36;;;;;;;5.75;2.45;;;;;;;;;;6275688;28;20139;-73
2021/08/20 05:41:37;;;;;;;8.30;2.80;;;;;;;;;;6269849;28;20052;-73
2021/08/20 05:44:40;;;;;;;4.70;2.63;;;;;;;;;;6279386;28;20048;-73
2021/08/20 05:47:42;;;;;;;5.15;2.70;;;;;;;;;;6262232;28;20684;-73
2021/08/20 05:50:43;;;;;;;4.80;2.60;;;;;;;;;;6267373;28;20494;-73
2021/08/20 05:53:45;;;;;;;3.92;2.72;;;;;;;;;;6279779;28;20538;-73
2021/08/20 05:56:46;;;;;;;5.45;2.38;;;;;;;;;;6266506;28;20044;-73
2021/08/20 05:59:49;;;;;;;3.88;2.35;;;;;;;;;;6278020;28;20480;-73
2021/08/20 06:02:51;;;;;;;3.78;2.35;;;;;;;;;;6262496;28;20052;-73
2021/08/20 06:05:52;;;;;;;3.25;2.47;;;;;;;;;;6269715;28;20048;-73
2021/08/20 06:08:54;;;;;;;6.28;2.50;;;;;;;;;;6277916;28;20124;-73
2021/08/20 06:11:55;;;;;;;6.65;2.83;;;;;;;;;;6269991;28;20044;-72
2021/08/20 06:14:59;;;;;;;13.73;2.80;;;;;;;;;;6274282;28;20506;-74
2021/08/20 06:18:00;;;;;;;6.10;2.75;;;;;;;;;;6265590;28;20079;-72
2021/08/20 06:21:02;;;;;;;5.45;2.70;;;;;;;;;;6270860;28;20634;-73
2021/08/20 06:24:04;;;;;;;4.03;2.70;;;;;;;;;;6282755;28;20094;-73
2021/08/20 06:27:06;;;;;;;7.82;2.40;;;;;;;;;;6273203;28;20130;-73
2021/08/20 06:30:10;;;;;;;3.95;2.75;;;;;;;;;;6280963;28;20171;-76
2021/08/20 06:33:11;;;;;;;4.90;2.55;;;;;;;;;;6270993;28;20211;-73
2021/08/20 06:36:13;;;;;;;6.13;2.38;;;;;;;;;;6283579;28;20183;-73
2021/08/20 06:39:14;;;;;;;4.50;2.40;;;;;;;;;;6282059;28;20911;-72
2021/08/20 06:42:16;;;;;;;6.03;2.65;;;;;;;;;;6276747;28;20133;-75
2021/08/20 06:45:19;;;;;;;5.63;2.70;;;;;;;;;;6275864;28;20048;-75
2021/08/20 06:48:20;;;;;;;3.25;2.33;;;;;;;;;;6265607;28;20177;-76
2021/08/20 06:51:22;;;;;;;4.15;2.45;;;;;;;;;;6270287;28;20049;-73
2021/08/20 06:54:24;;;;;;;5.70;2.75;;;;;;;;;;6276692;28;20132;-72
2021/08/20 06:57:25;;;;;;;5.68;2.58;;;;;;;;;;6262544;28;20045;-73
2021/08/20 07:00:28;;;;;;;5.72;2.88;;;;;;;;;;6270197;28;20063;-73
2021/08/20 07:03:30;;;;;;;4.78;2.60;;;;;;;;;;6267207;28;20041;-73
2021/08/20 07:06:31;;;;;;;3.53;2.50;;;;;;;;;;6269091;28;20159;-73
2021/08/20 07:09:35;;;;;;;5.45;2.75;;;;;;;;;;6278259;28;20044;-73
2021/08/20 07:12:37;;;;;;;4.53;2.78;;;;;;;;;;6270036;28;20398;-74
2021/08/20 07:15:40;;;;;;;5.90;2.90;;;;;;;;;;6268070;28;20033;-72
2021/08/20 07:18:42;;;;;;;5.15;2.70;;;;;;;;;;6271508;28;20136;-73
2021/08/20 07:21:43;;;;;;;3.20;2.47;;;;;;;;;;6270116;28;20083;-73
2021/08/20 07:24:45;;;;;;;6.13;2.53;;;;;;;;;;6277160;28;20238;-73
2021/08/20 07:27:47;;;;;;;5.18;2.28;;;;;;;;;;6269432;28;20048;-73
2021/08/20 07:30:49;;;;;;;6.05;2.60;;;;;;;;;;6272692;28;20085;-73
2021/08/20 07:33:51;;;;;;;4.43;2.75;;;;;;;;;;6277446;28;20147;-72
2021/08/20 07:36:53;;;;;;;8.13;3.20;;;;;;;;;;6275316;28;20048;-73
2021/08/20 07:39:54;;;;;;;4.60;3.28;;;;;;;;;;6278150;28;20174;-73
2021/08/20 07:42:56;;;;;;;5.35;2.60;;;;;;;;;;6273680;28;20041;-74
2021/08/20 07:45:59;;;;;;;3.20;2.20;;;;;;;;;;6275516;28;20134;-73
2021/08/20 07:49:01;;;;;;;5.70;2.45;;;;;;;;;;6276572;28;21321;-73
2021/08/20 07:52:03;;;;;;;5.82;2.38;;;;;;;;;;6272522;28;20182;-75
2021/08/20 07:55:05;;;;;;;4.60;2.22;;;;;;;;;;6282747;28;20131;-76
2021/08/20 07:58:07;;;;;;;3.87;2.43;;;;;;;;;;6272451;28;20052;-73
2021/08/20 08:01:11;;;;;;;3.38;2.03;;;;;;;;;;6271858;28;20467;-73
2021/08/20 08:04:13;;;;;;;1.95;1.60;;;;;;;;;;6273189;28;20044;-73
2021/08/20 08:07:14;;;;;;;4.23;1.67;;;;;;;;;;6268906;28;20159;-73
2021/08/20 08:10:17;;;;;;;4.20;1.60;;;;;;;;;;6270706;28;20514;-76
2021/08/20 08:13:18;;;;;;;6.18;1.92;;;;;;;;;;6277041;28;20053;-76
2021/08/20 08:16:22;;;;;;;2.95;1.45;;;;;;;;;;6270259;28;20467;-74
2021/08/20 08:19:23;;;;;;;;;;;;;;;;;;6276098;28;20119;-74
2021/08/20 08:22:24;;;;;;;3.80;1.20;;;;;;;;;;6274352;28;19928;-74
2021/08/20 08:25:27;;;;;;;2.38;1.70;;;;;;;;;;6268704;28;20183;-74
2021/08/20 08:28:29;;;;;;;4.65;1.70;;;;;;;;;;6277098;28;20048;-74
2021/08/20 08:31:32;;;;;;;4.47;1.90;;;;;;;;;;6264106;28;20101;-75
2021/08/20 08:34:33;;;;;;;2.28;1.60;;;;;;;;;;6280163;28;20138;-73
2021/08/20 08:37:35;;;;;;;2.88;1.73;;;;;;;;;;6268165;28;20094;-73
2021/08/20 08:40:40;;;;;;;5.38;1.90;;;;;;;;;;6267909;28;20139;-73
2021/08/20 08:43:42;;;;;;;3.08;1.67;;;;;;;;;;6281696;28;20127;-73
2021/08/20 08:46:45;;;;;;;2.80;1.88;;;;;;;;;;6269461;28;20041;-76
2021/08/20 08:49:49;;;;;;;2.85;1.90;;;;;;;;;;6271984;28;20509;-73
2021/08/20 08:52:51;;;;;;;4.97;1.83;;;;;;;;;;6270603;28;23418;-73
2021/08/20 08:55:54;;;;;;;2.72;1.80;;;;;;;;;;6269685;28;20032;-73
2021/08/20 08:58:55;;;;;;;4.20;2.22;;;;;;;;;;6275461;28;20052;-74
2021/08/20 09:01:59;;;;;;;7.38;2.85;;;;;;;;;;6269510;28;20041;-73
2021/08/20 09:05:02;;;;;;;4.28;2.42;;;;;;;;;;6272983;28;20378;-74
2021/08/20 09:08:11;;;;;;;4.57;1.88;;;;;;;;;;6266321;28;20564;-74
2021/08/20 09:11:26;;;;;;;3.45;1.70;;;;;;;;;;6273044;28;20051;-74
2021/08/20 09:14:30;;;;;;;3.20;1.80;;;;;;;;;;6291245;28;20071;-73
2021/08/20 09:17:35;;;;;;;2.40;1.70;;;;;;;;;;6274350;28;20082;-73
2021/08/20 09:20:37;;;;;;;5.18;2.22;;;;;;;;;;6270524;28;20071;-74
2021/08/20 09:23:39;;;;;;;3.40;2.00;;;;;;;;;;6282178;28;20084;-74
2021/08/20 09:26:43;;;;;;;4.55;2.38;;;;;;;;;;6256550;28;20095;-74
2021/08/20 09:29:54;;;;;;;5.43;2.05;;;;;;;;;;6278695;28;20123;-73
2021/08/20 09:32:58;;;;;;;4.80;1.90;;;;;;;;;;6267416;28;20131;-74
2021/08/20 09:36:01;;;;;;;4.10;1.90;;;;;;;;;;6269513;28;20045;-74
2021/08/20 09:39:02;;;;;;;3.33;2.13;;;;;;;;;;6274379;28;20094;-74
2021/08/20 09:42:12;;;;;;;5.25;1.85;;;;;;;;;;6265305;28;20041;-74
2021/08/20 09:45:18;;;;;;;3.88;1.88;;;;;;;;;;6272489;28;20048;-74
2021/08/20 09:51:50;;;;;;;3.65;1.90;;;;;;;;;;6242459;28;21086;-74
2021/08/20 09:54:52;;;;;;;3.10;1.85;;;;;;;;;;6248544;28;20151;-74
2021/08/20 09:57:53;;;;;;;3.95;1.88;;;;;;;;;;6241814;28;20041;-74
2021/08/20 10:00:55;;;;;;;3.37;1.87;;;;;;;;;;6243921;28;20417;-74
2021/08/20 10:03:58;;;;;;;3.58;1.90;;;;;;;;;;6251169;28;20508;-74
2021/08/20 10:07:01;;;;;;;4.10;2.10;;;;;;;;;;6242046;28;20038;-75
2021/08/20 10:10:04;;;;;;;3.63;2.15;;;;;;;;;;6249020;28;20041;-76
2021/08/20 10:13:05;;;;;;;3.53;1.92;;;;;;;;;;6247949;28;20179;-73
2021/08/20 10:16:08;;;;;;;3.00;1.73;;;;;;;;;;6255614;28;20081;-74
2021/08/20 10:19:11;;;;;;;3.50;1.77;;;;;;;;;;6275973;28;20105;-76
2021/08/20 10:22:14;;;;;;;3.08;1.55;;;;;;;;;;6261826;28;20046;-74
2021/08/20 10:25:16;;;;;;;4.32;1.92;;;;;;;;;;6269573;28;20049;-77
2021/08/20 10:28:18;;;;;;;2.80;1.90;;;;;;;;;;6272376;28;20073;-74
2021/08/20 10:31:20;;;;;;;5.03;1.55;;;;;;;;;;6261923;28;20471;-74
2021/08/20 10:34:35;;;;;;;;;;;;;;;;;;6279213;28;20171;-74
2021/08/20 10:37:38;;;;;;;2.85;1.95;;;;;;;;;;6249794;28;20643;-75
2021/08/20 10:40:39;;;;;;;4.28;1.92;;;;;;;;;;6253684;28;20131;-74
2021/08/20 10:43:49;;;;;;;4.85;2.03;;;;;;;;;;6258514;28;20109;-74
2021/08/20 10:47:00;;;;;;;4.65;2.28;;;;;;;;;;6249362;28;20131;-74
2021/08/20 10:50:13;;;;;;;3.10;1.80;;;;;;;;;;6251417;28;20046;-75
2021/08/20 10:53:22;;;;;;;4.20;2.03;;;;;;;;;;6252357;28;20045;-74
2021/08/20 10:56:32;;;;;;;3.97;2.55;;;;;;;;;;6251215;28;20132;-74
2021/08/20 10:59:56;;;;;;;6.38;2.45;;;;;;;;;;6261941;28;20512;-74
2021/08/20 11:02:58;;;;;;;3.83;2.10;;;;;;;;;;6228677;28;20050;-74
2021/08/20 11:06:00;;;;;;;3.47;2.58;;;;;;;;;;6226371;28;20529;-74
2021/08/20 11:09:25;;;;;;;5.07;2.28;;;;;;;;;;6229137;28;20041;-74
2021/08/20 11:12:36;;;;;;;4.25;2.30;;;;;;;;;;6221060;28;20062;-77
2021/08/20 11:15:45;;;;;;;5.53;2.45;;;;;;;;;;6218255;28;20046;-75
2021/08/20 11:18:49;;;;;;;4.60;3.15;;;;;;;;;;6229287;28;20728;-75
2021/08/20 11:21:51;;;;;;;4.70;2.78;;;;;;;;;;6219618;28;20424;-74
2021/08/20 11:25:27;;;;;;;3.80;2.05;;;;;;;;;;6228841;28;20080;-76
2021/08/20 11:28:31;;;;;;;5.05;2.22;;;;;;;;;;6223973;28;20140;-75
2021/08/20 11:31:33;;;;;;;5.22;2.40;;;;;;;;;;6216821;28;20188;-77
2021/08/20 11:34:35;;;;;;;9.13;2.85;;;;;;;;;;6234224;28;20246;-74
2021/08/20 11:37:36;;;;;;;3.25;2.38;;;;;;;;;;6222447;28;20046;-74
2021/08/20 11:40:50;;;;;;;2.45;1.67;;;;;;;;;;6220566;28;20116;-75
2021/08/20 11:43:54;;;;;;;3.97;2.78;;;;;;;;;;6226307;28;20501;-74
2021/08/20 11:46:56;;;;;;;6.13;2.05;;;;;;;;;;6214658;28;20345;-75
2021/08/20 11:50:07;;;;;;;4.93;2.65;;;;;;;;;;6222423;28;20584;-76
2021/08/20 11:53:09;;;;;;;5.07;2.20;;;;;;;;;;6219987;28;20060;-74
2021/08/20 11:56:13;;;;;;;4.90;2.25;;;;;;;;;;6226358;28;20187;-74
2021/08/20 11:59:14;;;;;;;2.80;2.10;;;;;;;;;;6223174;28;20056;-74
2021/08/20 12:02:19;;;;;;;3.17;2.10;;;;;;;;;;6211667;28;20125;-76
2021/08/20 12:05:22;;;;;;;3.42;2.05;;;;;;;;;;6218249;28;20147;-77
2021/08/20 12:08:23;;;;;;;4.05;2.03;;;;;;;;;;6224409;28;20060;-74
2021/08/20 12:11:29;;;;;;;3.78;1.98;;;;;;;;;;6215100;28;20042;-75
2021/08/20 12:14:32;;;;;;;4.00;2.40;;;;;;;;;;6225541;28;20505;-74
2021/08/20 12:17:34;;;;;;;2.67;1.77;;;;;;;;;;6209409;28;20052;-76
2021/08/20 12:20:42;;;;;;;3.97;1.85;;;;;;;;;;6214353;28;20042;-76
2021/08/20 12:23:57;;;;;;;2.50;1.80;;;;;;;;;;6224241;28;20172;-74
2021/08/20 12:27:16;;;;;;;4.05;1.90;;;;;;;;;;6219693;28;20057;-75
2021/08/20 12:30:19;;;;;;;3.95;1.95;;;;;;;;;;6224098;28;20049;-77
2021/08/20 12:33:21;;;;;;;5.95;2.03;;;;;;;;;;6222031;28;20045;-77
2021/08/20 12:36:23;;;;;;;5.53;2.47;;;;;;;;;;6222757;28;20485;-74
2021/08/20 12:39:34;;;;;;;2.58;2.00;;;;;;;;;;6231064;28;20038;-75
2021/08/20 12:42:44;;;;;;;4.03;1.77;;;;;;;;;;6218777;28;20046;-75
2021/08/20 12:46:01;;;;;;;4.70;1.80;;;;;;;;;;6213488;28;20505;-76
2021/08/20 12:49:05;;;;;;;3.65;2.05;;;;;;;;;;6216364;28;20049;-75
2021/08/20 12:52:07;;;;;;;2.42;1.95;;;;;;;;;;6219880;28;20338;-74
2021/08/20 12:55:26;;;;;;;8.70;2.03;;;;;;;;;;6218500;28;20081;-76
2021/08/20 12:58:30;;;;;;;3.05;1.92;;;;;;;;;;6224896;28;20052;-74
2021/08/20 13:01:32;;;;;;;5.18;1.98;;;;;;;;;;6214976;28;20049;-75
2021/08/20 13:04:33;;;;;;;;;;;;;;;;;;6224117;28;20042;-74
2021/08/20 13:07:35;;;;;;;2.47;1.87;;;;;;;;;;6218803;28;19929;-74
2021/08/20 13:10:36;;;;;;;2.42;1.80;;;;;;;;;;6215259;28;20184;-74
2021/08/20 13:13:39;;;;;;;3.30;2.13;;;;;;;;;;6233248;28;20049;-73
2021/08/20 13:16:41;;;;;;;2.92;1.90;;;;;;;;;;6227388;28;20041;-73
2021/08/20 13:19:42;;;;;;;4.00;1.77;;;;;;;;;;6230789;28;20053;-74
2021/08/20 13:22:45;;;;;;;2.30;1.98;;;;;;;;;;6228376;28;20136;-74
2021/08/20 13:25:47;;;;;;;3.75;1.85;;;;;;;;;;6224078;28;20191;-74
2021/08/20 13:28:50;;;;;;;6.32;1.92;;;;;;;;;;6234698;28;20155;-74
2021/08/20 13:31:51;;;;;;;9.55;2.33;;;;;;;;;;6229059;28;20668;-73
2021/08/20 13:34:53;;;;;;;2.25;2.05;;;;;;;;;;6230356;28;20465;-74
2021/08/20 13:37:54;;;;;;;2.75;1.80;;;;;;;;;;6214200;28;20037;-74
2021/08/20 13:40:56;;;;;;;4.35;1.92;;;;;;;;;;6215920;28;20472;-77
2021/08/20 13:43:59;;;;;;;4.18;2.10;;;;;;;;;;6225923;28;20129;-74
2021/08/20 13:47:01;;;;;;;3.80;1.90;;;;;;;;;;6212218;28;20085;-75
2021/08/20 13:50:04;;;;;;;7.05;2.17;;;;;;;;;;6221964;28;20050;-74
2021/08/20 13:53:06;;;;;;;3.30;2.20;;;;;;;;;;6214683;28;20045;-74
2021/08/20 13:56:08;;;;;;;6.00;2.00;;;;;;;;;;6217222;28;20385;-74
2021/08/20 13:59:10;;;;;;;2.60;2.00;;;;;;;;;;6224534;28;20125;-74
2021/08/20 14:02:12;;;;;;;5.25;2.10;;;;;;;;;;6213920;28;20045;-74
2021/08/20 14:05:14;;;;;;;2.70;2.03;;;;;;;;;;6217831;28;20046;-77
2021/08/20 14:08:15;;;;;;;3.80;2.13;;;;;;;;;;6220905;28;20500;-76
2021/08/20 14:11:17;;;;;;;5.72;2.17;;;;;;;;;;6215197;28;20251;-74
2021/08/20 14:14:20;;;;;;;2.72;2.10;;;;;;;;;;6230448;28;20053;-74
2021/08/20 14:17:21;;;;;;;4.50;2.05;;;;;;;;;;6211645;28;20184;-74
2021/08/20 14:20:23;;;;;;;4.18;2.20;;;;;;;;;;6219805;28;20153;-77
2021/08/20 14:23:24;;;;;;;;;;;;;;;;;;6222618;28;20046;-74
2021/08/20 14:26:26;;;;;;;4.13;2.10;;;;;;;;;;6214027;28;19921;-74
2021/08/20 14:29:29;;;;;;;2.58;2.35;;;;;;;;;;6225559;28;20099;-74
2021/08/20 14:32:32;;;;;;;3.78;2.28;;;;;;;;;;6208588;28;20397;-76
2021/08/20 14:35:33;;;;;;;3.65;1.92;;;;;;;;;;6227198;28;20125;-76
2021/08/20 14:38:34;;;;;;;;;;;;;;;;;;6231339;28;20477;-74
2021/08/20 14:41:36;;;;;;;4.78;2.30;;;;;;;;;;6220856;28;20006;-74
2021/08/20 14:44:39;;;;;;;3.42;2.20;;;;;;;;;;6233330;28;20172;-74
2021/08/20 14:47:41;;;;;;;5.53;2.40;;;;;;;;;;6219436;28;20077;-73
2021/08/20 14:50:44;;;;;;;;;;;;;;;;;;6216893;28;20046;-74
2021/08/20 14:53:45;;;;;;;4.30;2.45;;;;;;;;;;6227754;28;20056;-76
2021/08/20 14:56:47;;;;;;;3.42;2.17;;;;;;;;;;6221834;28;20077;-76
2021/08/20 14:59:50;;;;;;;4.82;3.00;;;;;;;;;;6225733;28;20117;-74
2021/08/20 15:02:51;;;;;;;7.03;2.50;;;;;;;;;;6213524;28;20049;-74
2021/08/20 15:05:53;;;;;;;;;;;;;;;;;;6213827;28;20045;-74
2021/08/20 15:08:54;;;;;;;4.05;2.50;;;;;;;;;;6229218;28;19920;-74
2021/08/20 15:11:56;;;;;;;4.28;2.50;;;;;;;;;;6220425;28;20087;-74
2021/08/20 15:14:59;;;;;;;3.97;2.13;;;;;;;;;;6226678;28;20046;-74
2021/08/20 15:18:01;;;;;;;3.42;2.13;;;;;;;;;;6215136;28;20133;-73
2021/08/20 15:21:02;;;;;;;4.88;2.28;;;;;;;;;;6220889;28;20057;-75
2021/08/20 15:24:04;;;;;;;7.38;3.03;;;;;;;;;;6226059;28;20212;-73
2021/08/20 15:27:06;;;;;;;7.72;2.20;;;;;;;;;;6217283;28;20053;-74
2021/08/20 15:30:10;;;;;;;;;;;;;;;;;;6230872;28;20529;-76
2021/08/20 15:33:12;;;;;;;4.80;2.40;;;;;;;;;;6221305;28;19936;-74
2021/08/20 15:36:14;;;;;;;2.90;2.13;;;;;;;;;;6223811;28;20063;-74
2021/08/20 15:39:17;;;;;;;8.00;2.30;;;;;;;;;;6226202;28;20049;-74
2021/08/20 15:42:18;;;;;;;5.15;2.42;;;;;;;;;;6208326;28;20053;-74
2021/08/20 15:45:21;;;;;;;5.63;2.33;;;;;;;;;;6221638;28;20046;-77
2021/08/20 15:48:23;;;;;;;6.07;2.35;;;;;;;;;;6221667;28;20195;-76
2021/08/20 15:51:25;;;;;;;2.25;2.00;;;;;;;;;;6217657;28;20106;-74
2021/08/20 15:54:27;;;;;;;3.13;2.10;;;;;;;;;;6223202;28;20765;-75
2021/08/20 15:57:28;;;;;;;3.70;2.10;;;;;;;;;;6222732;28;20125;-74
2021/08/20 16:00:31;;;;;;;4.47;2.05;;;;;;;;;;6224659;28;20045;-77
2021/08/20 16:03:33;;;;;;;6.72;2.28;;;;;;;;;;6224036;28;20107;-74
2021/08/20 16:06:36;;;;;;;3.45;2.22;;;;;;;;;;6219752;28;20081;-76
2021/08/20 16:09:39;;;;;;;3.38;2.40;;;;;;;;;;6229552;28;20187;-75
2021/08/20 16:12:41;;;;;;;2.95;2.03;;;;;;;;;;6221926;28;20109;-75
2021/08/20 16:15:44;;;;;;;5.18;2.28;;;;;;;;;;6218853;28;20037;-76
2021/08/20 16:18:47;;;;;;;5.75;2.00;;;;;;;;;;6224900;28;20042;-75
2021/08/20 16:21:48;;;;;;;5.20;2.50;;;;;;;;;;6221651;28;20052;-77
2021/08/20 16:24:50;;;;;;;3.83;2.40;;;;;;;;;;6226503;28;20561;-74
2021/08/20 16:27:52;;;;;;;3.33;2.15;;;;;;;;;;6221136;28;20088;-75
2021/08/20 16:30:56;;;;;;;3.07;2.23;;;;;;;;;;6216589;28;20521;-75
2021/08/20 16:33:58;;;;;;;7.25;2.55;;;;;;;;;;6227003;28;20468;-73
2021/08/20 16:37:00;;;;;;;3.20;2.15;;;;;;;;;;6221420;28;20136;-74
2021/08/20 16:40:03;;;;;;;3.85;2.10;;;;;;;;;;6230799;28;20483;-74
2021/08/20 16:43:05;;;;;;;5.13;2.50;;;;;;;;;;6218700;28;20053;-74
2021/08/20 16:46:08;;;;;;;3.47;2.20;;;;;;;;;;6215226;28;20054;-77
2021/08/20 16:49:10;;;;;;;3.30;2.20;;;;;;;;;;6225123;28;20099;-74
2021/08/20 16:52:11;;;;;;;3.70;2.22;;;;;;;;;;6217995;28;20046;-73
2021/08/20 16:55:13;;;;;;;6.78;2.40;;;;;;;;;;6220995;28;20076;-76
2021/08/20 16:58:14;;;;;;;4.38;2.78;;;;;;;;;;6228777;28;20056;-74
2021/08/20 17:01:17;;;;;;;5.22;2.50;;;;;;;;;;6211479;28;20099;-74
2021/08/20 17:04:19;;;;;;;5.45;2.30;;;;;;;;;;6221680;28;20120;-74
2021/08/20 17:07:20;;;;;;;2.63;2.10;;;;;;;;;;6218784;28;21097;-74
2021/08/20 17:10:22;;;;;;;7.97;2.40;;;;;;;;;;6225375;28;20042;-76
2021/08/20 17:13:24;;;;;;;3.65;2.17;;;;;;;;;;6226918;28;20069;-74
2021/08/20 17:16:27;;;;;;;5.60;2.42;;;;;;;;;;6217801;28;21391;-75
2021/08/20 17:19:28;;;;;;;4.15;2.13;;;;;;;;;;6229937;28;20804;-74
2021/08/20 17:22:30;;;;;;;3.97;2.10;;;;;;;;;;6240342;28;20128;-73
2021/08/20 17:25:31;;;;;;;10.68;2.60;;;;;;;;;;6250758;28;20057;-77
2021/08/20 17:28:33;;;;;;;4.72;2.35;;;;;;;;;;6252771;28;20137;-74
2021/08/20 17:31:36;;;;;;;6.50;2.17;;;;;;;;;;6231347;28;20061;-77
2021/08/20 17:34:37;;;;;;;;;;;;;;;;;;6240770;28;20057;-73
2021/08/20 17:37:39;;;;;;;6.57;2.60;;;;;;;;;;6224069;28;19929;-75
2021/08/20 17:40:42;;;;;;;6.20;2.40;;;;;;;;;;6220545;28;20123;-73
2021/08/20 17:43:43;;;;;;;6.00;1.98;;;;;;;;;;6227534;28;20106;-73
2021/08/20 17:46:46;;;;;;;5.93;1.85;;;;;;;;;;6212195;28;20065;-74
2021/08/20 17:49:48;;;;;;;;;;;;;;;;;;6226380;28;20095;-74
2021/08/20 17:52:49;;;;;;;7.30;2.10;;;;;;;;;;6216964;28;20011;-74
2021/08/20 17:55:51;;;;;;;4.45;1.95;;;;;;;;;;6216248;28;20122;-74
2021/08/20 17:58:52;;;;;;;6.75;2.22;;;;;;;;;;6227226;28;20136;-73
2021/08/20 18:01:56;;;;;;;3.15;2.05;;;;;;;;;;6216699;28;20627;-74
2021/08/20 18:04:57;;;;;;;4.80;2.20;;;;;;;;;;6223270;28;20052;-76
2021/08/20 18:08:00;;;;;;;3.08;2.20;;;;;;;;;;6216389;28;20110;-74
2021/08/20 18:11:02;;;;;;;6.80;2.40;;;;;;;;;;6216235;28;20127;-73
2021/08/20 18:14:05;;;;;;;3.97;2.33;;;;;;;;;;6229488;28;21189;-74
2021/08/20 18:17:09;;;;;;;6.88;1.88;;;;;;;;;;6220638;28;20045;-74
2021/08/20 18:20:12;;;;;;;5.60;2.40;;;;;;;;;;6225507;28;20062;-76
2021/08/20 18:23:14;;;;;;;8.07;2.72;;;;;;;;;;6228265;28;20045;-75